Aviation Digital Data Service (ADDS)

Output produced by METARs form (0014 UTC 30 May 2020)
found at http://www.aviationweather.gov/metar/data/
 
RJTT 300000Z 09005KT 9999 FEW015 BKN/// 23/18 Q1020 NOSIG RMK 1CU015 A3014
RJTT 292330Z 08004KT 9999 FEW015 BKN/// 22/19 Q1020 NOSIG RMK 1CU015 A3014
TAF RJTT 292305Z 3000/3106 12006KT 9999 FEW020 
     BECMG 3002/3004 18012KT
       
RJAA 300000Z 18004KT 120V240 9999 FEW020 BKN/// 24/18 Q1020 NOSIG RMK 2CU020 A3014
RJAA 292330Z 16004KT 130V200 9999 FEW020 BKN/// 23/17 Q1020 NOSIG
TAF RJAA 292305Z 3000/3106 16010KT 9999 FEW030 
     TEMPO 3002/3005 3000 TSRA BR FEW010 BKN020 SCT030CB 
     TEMPO 3018/3021 4000 BR
       
RJGG 300000Z 28004KT 250V320 9999 FEW030 BKN/// 22/14 Q1020 NOSIG
RJGG 292330Z VRB02KT 9999 FEW030 BKN/// 21/14 Q1020 NOSIG
TAF RJGG 292305Z 3000/3106 30004KT 9999 FEW030 
     BECMG 3000/3002 16010KT
       
RJBB 300000Z 02006KT 9999 FEW035 SCT/// 22/11 Q1019 NOSIG
RJBB 292330Z 35003KT CAVOK 21/12 Q1019 NOSIG
TAF RJBB 292305Z 3000/3106 01004KT 9999 FEW035 
     BECMG 3002/3004 24010KT 
     BECMG 3012/3015 07006KT
       
RJOO 300000Z 05008KT 010V090 9999 FEW030 BKN/// 24/11 Q1019 RMK 1CU030 A3010
TAF RJOO 292307Z 3000/3106 04004KT 9999 FEW035 
     BECMG 3002/3004 22006KT 
     BECMG 3010/3012 36005KT 
     BECMG 3021/3100 07008KT
       
RJFF 300000Z VRB02KT CAVOK 22/15 Q1017 NOSIG RMK A3005
RJFF 292330Z VRB01KT CAVOK 21/15 Q1017 NOSIG RMK A3005
TAF RJFF 292306Z 3000/3106 15004KT 9999 FEW030 
     BECMG 3001/3003 32009KT 
     BECMG 3010/3012 15005KT 
     BECMG 3103/3106 32006KT
       
ROAH 300000Z 11009KT 090V160 9999 BKN015 26/24 Q1013 RMK 6CU015 A2993
ROAH 292330Z 11010KT 9999 BKN015 26/23 Q1013 RMK 6CU015 A2993
TAF ROAH 292309Z 3000/3106 15011KT 9999 FEW008 BKN015 
     TEMPO 3005/3009 4000 SHRA FEW005 BKN010 FEW020CB 
     BECMG 3007/3009 22010KT 
     TEMPO 3012/3100 BKN008 BKN015
       
RJCC 300000Z 12009KT 9999 FEW050 21/12 Q1015 RMK 1SC050 A2999
RJCC 292330Z 13008KT 100V160 9999 FEW050 20/11 Q1015 RMK 1SC050 A2999
TAF RJCC 292305Z 3000/3106 17008KT 9999 FEW040 
     BECMG 3007/3009 36005KT 
     BECMG 3012/3015 17013KT
       
RJEC 300000Z VRB02KT CAVOK 22/11 Q1015
TAF RJEC 292306Z 3000/3106 32010KT 9999 FEW040 
     BECMG 3012/3015 16008KT 
     BECMG 3103/3106 28010KT
       
RJCK 300000Z 19006KT 160V230 9999 FEW040 20/12 Q1012
TAF RJCK 292309Z 3000/3106 19010KT 9999 FEW030 
     BECMG 3012/3015 28009KT 
     BECMG 3021/3100 20013KT
       
RJSA 300000Z 23006KT 200V280 CAVOK 20/06 Q1020
TAF RJSA 292305Z 3000/3106 26008KT 9999 FEW030 
     BECMG 3103/3106 01005KT
       
RJSK 300000Z VRB02KT 9999 FEW030 18/11 Q1021
TAF RJSK 292307Z 3000/3106 14004KT 9999 FEW040 
     BECMG 3000/3002 28010KT 
     BECMG 3010/3011 14004KT 
     BECMG 3100/3103 28010KT
       
RJSN 300000Z 36005KT CAVOK 19/14 Q1021
TAF RJSN 292306Z 3000/3106 36010KT 9999 FEW040 
     BECMG 3004/3006 02010KT 
     BECMG 3100/3103 35008KT
       
RJSF 300000Z VRB02KT 9999 FEW030 20/10 Q1021
TAF RJSF 292305Z 3000/3106 20006KT 9999 FEW020 SCT050
       
RJSS 300000Z 10003KT 030V140 CAVOK 21/10 Q1020
TAF RJSS 292306Z 3000/3106 14010KT 9999 FEW030 
     BECMG 3012/3015 30004KT 
     BECMG 3021/3100 12010KT
       
RJOK 300000Z 32004KT 280V350 CAVOK 23/14 Q1018
TAF RJOK 292308Z 3000/3106 17008KT 9999 FEW035 
     BECMG 3010/3012 36005KT 
     TEMPO 3021/3103 4000 SHRA BR FEW003 BKN009 BKN020 
     BECMG 3103/3106 10004KT
       
RJOM 300000Z 35003KT CAVOK 21/14 Q1018
TAF RJOM 292307Z 3000/3106 36010KT 9999 FEW035 
     BECMG 3004/3006 24005KT 
     TEMPO 3015/3021 4000 RA BR 
     BECMG 3103/3106 36010KT
       
RJFO 300000Z VRB01KT CAVOK 21/14 Q1018
TAF RJFO 292306Z 3000/3106 07007KT 9999 FEW025 SCT045 
     BECMG 3005/3007 15004KT 
     BECMG 3021/3100 08008KT
       
RJFU 300000Z 15004KT 120V180 9999 FEW020 SCT050 BKN/// 21/17 Q1017
TAF RJFU 292311Z 3000/3106 14005KT 9999 FEW040 
     BECMG 3002/3004 31005KT 
     BECMG 3010/3012 14005KT 
     BECMG 3100/3103 32005KT
       
RJFT 300000Z VRB02KT CAVOK 21/16 Q1017
TAF RJFT 292313Z 3000/3106 24005KT 9999 FEW040 
     BECMG 3012/3015 06003KT 
     BECMG 3100/3103 24005KT
       
RJFK 300000Z 13006KT CAVOK 21/12 Q1018 RMK A3008
TAF RJFK 292308Z 3000/3106 12008KT 9999 FEW025 SCT035
       
RJFM 300000Z VRB03KT 9999 FEW020 SCT040 BKN140 22/16 Q1018
TAF RJFM 292307Z 3000/3106 29006KT 9999 FEW015 SCT025 
     BECMG 3000/3002 05007KT 
     BECMG 3015/3018 27005KT 
     BECMG 3100/3103 06010KT